createdAt,value
2018-11-02T00:00:01.801Z,19.80
2018-11-02T00:01:01.848Z,19.80
2018-11-02T00:02:01.872Z,19.83
2018-11-02T00:03:01.891Z,19.86
2018-11-02T00:05:01.970Z,19.78
2018-11-02T00:07:02.338Z,19.85
2018-11-02T00:08:02.455Z,19.83
2018-11-02T00:10:02.119Z,19.79
2018-11-02T00:11:02.096Z,19.79
2018-11-02T00:12:02.268Z,19.83
2018-11-02T00:13:02.212Z,19.80
2018-11-02T00:14:02.508Z,19.87
2018-11-02T00:15:02.239Z,19.82
2018-11-02T00:16:02.312Z,19.87
2018-11-02T00:20:02.435Z,19.94
2018-11-02T00:21:02.767Z,19.80
2018-11-02T00:22:02.495Z,19.80
2018-11-02T00:23:02.532Z,19.83
2018-11-02T00:24:02.557Z,19.90
2018-11-02T00:26:02.628Z,19.87
2018-11-02T00:27:02.657Z,19.82
2018-11-02T00:28:02.641Z,19.79
2018-11-02T00:29:02.673Z,19.80
2018-11-02T00:30:02.755Z,19.94
2018-11-02T00:31:02.738Z,19.80
2018-11-02T00:32:02.972Z,19.83
2018-11-02T00:33:02.853Z,19.92
2018-11-02T00:34:03.262Z,19.85
2018-11-02T00:35:02.863Z,19.92
2018-11-02T00:37:02.978Z,19.87
2018-11-02T00:38:02.961Z,19.89
2018-11-02T00:39:03.053Z,19.86
2018-11-02T00:40:03.041Z,19.83
2018-11-02T00:41:03.368Z,19.89
2018-11-02T00:43:03.187Z,19.89
2018-11-02T00:44:03.236Z,19.87
2018-11-02T00:45:03.237Z,19.90
2018-11-02T00:47:03.252Z,19.94
2018-11-02T00:48:03.581Z,19.94
2018-11-02T00:49:03.363Z,19.89
2018-11-02T00:50:03.355Z,19.86
2018-11-02T00:51:03.379Z,19.86
2018-11-02T00:52:03.457Z,19.90
2018-11-02T00:54:03.526Z,19.87
2018-11-02T00:55:03.817Z,19.87
2018-11-02T00:56:03.590Z,19.85
2018-11-02T00:57:03.571Z,19.92
2018-11-02T00:58:03.601Z,19.87
2018-11-02T00:59:03.685Z,19.87
2018-11-02T01:00:03.664Z,19.92
2018-11-02T01:04:03.841Z,19.92
2018-11-02T01:06:04.208Z,19.90
2018-11-02T01:07:03.942Z,19.87
2018-11-02T01:08:03.946Z,19.89
2018-11-02T01:09:03.985Z,19.82
2018-11-02T01:10:04.001Z,19.87
2018-11-02T01:11:04.079Z,19.86
2018-11-02T01:12:04.354Z,19.86
2018-11-02T01:13:04.143Z,19.86
2018-11-02T01:14:04.115Z,19.87
2018-11-02T01:15:04.146Z,19.90
2018-11-02T01:17:04.264Z,19.90
2018-11-02T01:18:04.241Z,19.92
2018-11-02T01:19:04.579Z,19.90
2018-11-02T01:20:04.327Z,19.87
2018-11-02T01:21:04.394Z,19.92
2018-11-02T01:22:04.441Z,19.89
2018-11-02T01:23:04.475Z,19.90
2018-11-02T01:24:04.482Z,19.83
2018-11-02T01:25:04.466Z,19.90
2018-11-02T01:26:04.806Z,19.83
2018-11-02T01:27:04.629Z,19.89
2018-11-02T01:28:04.560Z,19.85
2018-11-02T01:29:04.654Z,19.92
2018-11-02T01:30:04.630Z,19.86
2018-11-02T01:31:04.709Z,19.87
2018-11-02T01:32:04.737Z,19.92
2018-11-02T01:33:05.037Z,19.87
2018-11-02T01:34:04.759Z,19.92
2018-11-02T01:36:04.816Z,19.85
2018-11-02T01:37:04.852Z,19.86
2018-11-02T01:38:04.929Z,19.87
2018-11-02T01:39:04.963Z,19.95
2018-11-02T01:40:05.276Z,19.95
2018-11-02T01:41:05.028Z,19.92
2018-11-02T01:42:05.010Z,19.95
2018-11-02T01:43:05.160Z,19.92
2018-11-02T01:44:05.126Z,19.90
2018-11-02T01:45:05.156Z,19.90
2018-11-02T01:46:05.135Z,19.87
2018-11-02T01:47:05.466Z,19.86
2018-11-02T01:48:05.201Z,19.87
2018-11-02T01:49:05.288Z,19.89
2018-11-02T01:50:05.277Z,19.90
2018-11-02T01:51:05.347Z,19.87
2018-11-02T01:52:05.330Z,19.92
2018-11-02T01:53:05.795Z,19.94
2018-11-02T01:54:05.742Z,19.94
2018-11-02T01:55:05.481Z,19.89
2018-11-02T01:56:05.456Z,19.92
2018-11-02T01:57:05.541Z,19.86
2018-11-02T01:58:05.521Z,19.90
2018-11-02T01:59:05.603Z,19.90
2018-11-02T02:00:05.639Z,19.94
2018-11-02T02:01:05.916Z,19.94
2018-11-02T02:02:05.709Z,19.89
2018-11-02T02:03:05.730Z,19.89
2018-11-02T02:04:05.763Z,19.89
2018-11-02T02:05:05.795Z,19.92
2018-11-02T02:06:05.777Z,19.94
2018-11-02T02:07:05.857Z,19.90
2018-11-02T02:08:06.140Z,19.95
2018-11-02T02:09:05.872Z,19.89
2018-11-02T02:10:05.954Z,19.92
2018-11-02T02:11:05.989Z,19.95
2018-11-02T02:12:06.068Z,19.86
2018-11-02T02:13:06.053Z,19.92
2018-11-02T02:14:06.081Z,19.92
2018-11-02T02:15:06.366Z,19.92
2018-11-02T02:16:06.098Z,19.94
2018-11-02T02:17:06.177Z,19.89
2018-11-02T02:18:06.159Z,19.92
2018-11-02T02:19:06.245Z,19.87
2018-11-02T02:20:06.225Z,19.89
2018-11-02T02:21:06.307Z,19.94
2018-11-02T02:22:06.588Z,19.97
2018-11-02T02:23:06.378Z,19.92
2018-11-02T02:24:06.405Z,19.94
2018-11-02T02:25:06.436Z,19.90
2018-11-02T02:26:06.471Z,19.90
2018-11-02T02:27:06.498Z,19.92
2018-11-02T02:28:06.580Z,19.90
2018-11-02T02:29:06.863Z,19.87
2018-11-02T02:30:06.565Z,19.94
2018-11-02T02:31:06.578Z,19.90
2018-11-02T02:32:06.658Z,19.92
2018-11-02T02:34:06.727Z,19.90
2018-11-02T02:35:06.760Z,19.90
2018-11-02T02:36:07.040Z,19.92
2018-11-02T02:37:06.781Z,19.90
2018-11-02T02:38:06.808Z,19.94
2018-11-02T02:39:06.832Z,19.87
2018-11-02T02:40:06.872Z,19.92
2018-11-02T02:41:06.945Z,19.89
2018-11-02T02:42:07.237Z,19.90
2018-11-02T02:43:07.007Z,19.92
2018-11-02T02:44:07.149Z,19.97
2018-11-02T02:45:07.072Z,19.90
2018-11-02T02:46:07.054Z,19.94
2018-11-02T02:47:07.139Z,19.89
2018-11-02T02:48:07.474Z,19.89
2018-11-02T02:49:07.205Z,19.89
2018-11-02T02:50:07.184Z,19.95
2018-11-02T02:51:07.272Z,19.90
2018-11-02T02:52:07.317Z,19.94
2018-11-02T02:53:07.282Z,19.97
2018-11-02T02:54:07.814Z,19.94
2018-11-02T02:55:07.392Z,19.95
2018-11-02T02:56:07.425Z,19.90
2018-11-02T02:57:07.407Z,19.92
2018-11-02T02:58:07.473Z,19.89
2018-11-02T02:59:07.468Z,19.94
2018-11-02T03:00:07.555Z,19.94
2018-11-02T03:01:07.837Z,19.89
2018-11-02T03:02:07.565Z,19.89
2018-11-02T03:03:07.600Z,19.92
2018-11-02T03:04:07.630Z,19.90
2018-11-02T03:05:07.712Z,19.94
2018-11-02T03:06:07.747Z,19.94
2018-11-02T03:07:07.775Z,19.89
2018-11-02T03:08:08.095Z,19.90
2018-11-02T03:09:07.846Z,19.90
2018-11-02T03:10:07.830Z,19.86
2018-11-02T03:11:08.052Z,19.87
2018-11-02T03:12:07.934Z,19.89
2018-11-02T03:13:08.018Z,19.92
2018-11-02T03:14:08.001Z,19.97
2018-11-02T03:15:08.280Z,19.89
2018-11-02T03:16:08.119Z,19.87
2018-11-02T03:17:08.096Z,19.87
2018-11-02T03:18:08.167Z,19.92
2018-11-02T03:19:08.115Z,19.90
2018-11-02T03:20:08.238Z,19.87
2018-11-02T03:21:08.224Z,19.86
2018-11-02T03:22:08.506Z,19.87
2018-11-02T03:23:08.234Z,19.85
2018-11-02T03:24:08.270Z,19.90
2018-11-02T03:25:08.354Z,19.94
2018-11-02T03:26:08.450Z,19.89
2018-11-02T03:27:08.424Z,19.86
2018-11-02T03:28:08.396Z,19.94
2018-11-02T03:29:08.731Z,19.92
2018-11-02T03:30:08.510Z,19.87
2018-11-02T03:31:08.563Z,19.90
2018-11-02T03:32:08.522Z,19.89
2018-11-02T03:33:08.556Z,19.85
2018-11-02T03:34:08.636Z,19.80
2018-11-02T03:35:08.620Z,19.85
2018-11-02T03:36:08.960Z,19.90
2018-11-02T03:37:08.736Z,19.89
2018-11-02T03:38:08.713Z,19.80
2018-11-02T03:39:08.799Z,19.82
2018-11-02T03:40:08.827Z,19.90
2018-11-02T03:41:08.860Z,19.85
2018-11-02T03:42:08.841Z,19.86
2018-11-02T03:43:09.175Z,19.89
2018-11-02T03:44:08.905Z,19.87
2018-11-02T03:45:08.940Z,19.82
2018-11-02T03:46:09.022Z,19.79
2018-11-02T03:47:09.076Z,19.85
2018-11-02T03:48:09.084Z,19.85
2018-11-02T03:51:09.478Z,19.85
2018-11-02T03:52:09.582Z,19.86
2018-11-02T03:53:09.240Z,19.82
2018-11-02T03:54:09.222Z,19.89
2018-11-02T03:55:09.256Z,19.86
2018-11-02T03:56:09.339Z,19.85
2018-11-02T03:57:09.371Z,19.82
2018-11-02T03:58:09.654Z,19.82
2018-11-02T03:59:09.430Z,19.82
2018-11-02T04:00:09.584Z,19.87
2018-11-02T04:03:36.231Z,19.80
2018-11-02T04:04:36.250Z,19.79
2018-11-02T04:05:36.280Z,19.78
2018-11-02T04:06:36.318Z,19.80
2018-11-02T04:07:36.290Z,19.78
2018-11-02T04:08:36.376Z,19.83
2018-11-02T04:09:36.722Z,19.79
2018-11-02T04:10:36.390Z,19.76
2018-11-02T04:11:36.423Z,19.83
2018-11-02T04:12:36.460Z,19.83
2018-11-02T04:13:36.488Z,19.76
2018-11-02T04:14:36.599Z,19.76
2018-11-02T04:15:36.596Z,19.78
2018-11-02T04:16:36.890Z,19.82
2018-11-02T04:17:36.693Z,19.78
2018-11-02T04:18:36.708Z,19.80
2018-11-02T04:19:36.688Z,19.75
2018-11-02T04:20:36.769Z,19.78
2018-11-02T04:21:36.737Z,19.76
2018-11-02T04:23:36.853Z,19.78
2018-11-02T04:24:37.233Z,19.79
2018-11-02T04:25:36.916Z,19.71
2018-11-02T04:26:36.896Z,19.80
2018-11-02T04:29:37.041Z,19.76
2018-11-02T04:30:37.075Z,19.76
2018-11-02T04:31:37.356Z,19.75
2018-11-02T04:32:37.147Z,19.82
2018-11-02T04:33:37.475Z,19.70
2018-11-02T04:34:37.216Z,19.72
2018-11-02T04:35:37.205Z,19.80
2018-11-02T04:36:37.220Z,19.72
2018-11-02T04:37:37.299Z,19.70
2018-11-02T04:38:37.577Z,19.79
2018-11-02T04:39:37.366Z,19.72
2018-11-02T04:40:37.344Z,19.76
2018-11-02T04:41:37.915Z,19.75
2018-11-02T04:42:37.454Z,19.78
2018-11-02T04:43:37.436Z,19.79
2018-11-02T04:44:37.521Z,19.76
2018-11-02T04:45:37.801Z,19.76
2018-11-02T04:46:37.580Z,19.76
2018-11-02T04:47:37.667Z,19.72
2018-11-02T04:48:37.701Z,19.67
2018-11-02T04:49:37.727Z,19.71
2018-11-02T04:50:37.711Z,19.70
2018-11-02T04:51:37.839Z,19.71
2018-11-02T04:52:38.103Z,19.75
2018-11-02T04:53:37.809Z,19.70
2018-11-02T04:54:37.842Z,19.67
2018-11-02T04:55:37.825Z,19.75
2018-11-02T04:56:37.851Z,19.67
2018-11-02T04:57:37.981Z,19.71
2018-11-02T04:58:37.912Z,19.67
2018-11-02T04:59:38.255Z,19.72
2018-11-02T05:00:38.026Z,19.72
2018-11-02T05:01:38.016Z,19.65
2018-11-02T05:02:38.089Z,19.62
2018-11-02T05:03:38.135Z,19.60
2018-11-02T05:04:38.156Z,19.60
2018-11-02T05:05:38.137Z,19.68
2018-11-02T05:06:38.469Z,19.67
2018-11-02T05:07:38.247Z,19.62
2018-11-02T05:08:38.227Z,19.58
2018-11-02T05:09:38.369Z,19.58
2018-11-02T05:10:38.293Z,19.67
2018-11-02T05:11:38.373Z,19.70
2018-11-02T05:12:38.401Z,19.57
2018-11-02T05:13:38.792Z,19.67
2018-11-02T05:14:38.496Z,19.57
2018-11-02T05:15:38.500Z,19.65
2018-11-02T05:16:38.484Z,19.64
2018-11-02T05:17:38.618Z,19.62
2018-11-02T05:18:38.594Z,19.62
2018-11-02T05:19:38.876Z,19.64
2018-11-02T05:20:38.609Z,19.61
2018-11-02T05:21:38.639Z,19.57
2018-11-02T05:22:38.728Z,19.62
2018-11-02T05:23:38.780Z,19.57
2018-11-02T05:24:38.733Z,19.52
2018-11-02T05:25:39.147Z,19.60
2018-11-02T05:26:38.797Z,19.58
2018-11-02T05:27:38.828Z,19.58
2018-11-02T05:28:38.863Z,19.57
2018-11-02T05:29:38.894Z,19.64
2018-11-02T05:30:38.978Z,19.65
2018-11-02T05:31:39.255Z,19.60
2018-11-02T05:32:38.994Z,19.60
2018-11-02T05:33:39.021Z,19.57
2018-11-02T05:34:39.152Z,19.57
2018-11-02T05:35:39.131Z,19.55
2018-11-02T05:36:39.215Z,19.52
2018-11-02T05:37:39.197Z,19.65
2018-11-02T05:38:39.477Z,19.55
2018-11-02T05:39:39.430Z,19.60
2018-11-02T05:40:39.293Z,19.52
2018-11-02T05:41:39.296Z,19.62
2018-11-02T05:42:39.355Z,19.60
2018-11-02T05:43:39.335Z,19.50
2018-11-02T05:44:39.476Z,19.53
2018-11-02T05:45:39.800Z,19.49
2018-11-02T05:46:39.483Z,19.50
2018-11-02T05:47:39.581Z,19.52
2018-11-02T05:48:39.492Z,19.58
2018-11-02T05:49:39.531Z,19.47
2018-11-02T05:50:39.606Z,19.52
2018-11-02T05:51:39.637Z,19.52
2018-11-02T05:53:39.951Z,19.55
2018-11-02T05:54:39.790Z,19.62
2018-11-02T05:55:39.713Z,19.55
2018-11-02T05:56:39.795Z,19.62
2018-11-02T05:57:39.811Z,19.60
2018-11-02T05:58:39.917Z,19.52
2018-11-02T05:59:39.841Z,19.50
2018-11-02T06:00:40.172Z,19.55
2018-11-02T06:01:40.019Z,19.49
2018-11-02T06:02:40.239Z,19.50
2018-11-02T06:03:39.970Z,19.52
2018-11-02T06:04:40.005Z,19.47
2018-11-02T06:05:40.034Z,19.58
2018-11-02T06:06:40.163Z,19.58
2018-11-02T06:07:40.401Z,19.50
2018-11-02T06:08:40.129Z,19.53
2018-11-02T06:09:40.208Z,19.53
2018-11-02T06:10:40.239Z,19.55
2018-11-02T06:11:40.224Z,19.53
2018-11-02T06:12:40.252Z,19.52
2018-11-02T06:13:40.286Z,19.53
2018-11-02T06:16:40.737Z,19.57
2018-11-02T06:17:40.514Z,19.58
2018-11-02T06:19:40.525Z,19.50
2018-11-02T06:20:40.589Z,19.60
2018-11-02T06:21:40.538Z,19.61
2018-11-02T06:22:41.274Z,19.60
2018-11-02T06:23:40.655Z,19.60
2018-11-02T06:24:40.636Z,19.62
2018-11-02T06:25:40.664Z,19.55
2018-11-02T06:26:40.755Z,19.49
2018-11-02T06:27:40.730Z,19.62
2018-11-02T06:28:40.816Z,19.52
2018-11-02T06:29:41.091Z,19.49
2018-11-02T06:31:41.045Z,19.53
2018-11-02T06:32:40.930Z,19.58
2018-11-02T06:33:40.998Z,19.55
2018-11-02T06:34:41.128Z,19.58
2018-11-02T06:35:40.982Z,19.57
2018-11-02T06:37:41.410Z,19.58
2018-11-02T06:39:41.156Z,19.60
2018-11-02T06:40:41.187Z,19.57
2018-11-02T06:41:41.169Z,19.61
2018-11-02T06:42:41.267Z,19.57
2018-11-02T06:44:41.344Z,19.60
2018-11-02T06:45:41.297Z,19.62
2018-11-02T06:46:41.378Z,19.55
2018-11-02T06:47:41.413Z,19.64
2018-11-02T06:48:41.409Z,19.61
2018-11-02T06:49:41.732Z,19.62
2018-11-02T06:50:41.563Z,19.64
2018-11-02T06:51:41.594Z,19.64
2018-11-02T06:52:41.567Z,19.62
2018-11-02T06:53:41.610Z,19.60
2018-11-02T06:54:41.580Z,19.68
2018-11-02T06:55:41.611Z,19.67
2018-11-02T06:56:42.045Z,19.60
2018-11-02T06:57:41.678Z,19.65
2018-11-02T06:58:42.115Z,19.58
2018-11-02T06:59:41.968Z,19.62
2018-11-02T07:00:41.773Z,19.71
2018-11-02T07:01:41.905Z,19.61
2018-11-02T07:02:41.885Z,19.61
2018-11-02T07:03:42.269Z,19.64
2018-11-02T07:04:41.907Z,19.61
2018-11-02T07:05:41.931Z,19.72
2018-11-02T07:06:42.013Z,19.78
2018-11-02T07:07:42.237Z,19.71
2018-11-02T07:08:42.190Z,19.68
2018-11-02T07:09:42.063Z,19.76
2018-11-02T07:11:42.271Z,19.70
2018-11-02T07:12:42.183Z,19.71
2018-11-02T07:13:42.232Z,19.65
2018-11-02T07:14:42.282Z,19.67
2018-11-02T07:15:42.302Z,19.71
2018-11-02T07:16:42.586Z,19.70
2018-11-02T07:17:42.310Z,19.75
2018-11-02T07:18:42.394Z,19.68
2018-11-02T07:19:42.529Z,19.67
2018-11-02T07:20:42.414Z,19.68
2018-11-02T07:21:42.446Z,19.67
2018-11-02T07:22:42.873Z,19.71
2018-11-02T07:23:42.552Z,19.71
2018-11-02T07:25:42.618Z,19.67
2018-11-02T07:26:42.647Z,19.75
2018-11-02T07:27:42.629Z,19.76
2018-11-02T07:28:42.966Z,19.68
2018-11-02T07:29:42.694Z,19.76
2018-11-02T07:30:42.775Z,19.71
2018-11-02T07:31:42.804Z,19.78
2018-11-02T07:32:42.791Z,19.71
2018-11-02T07:33:42.872Z,19.70
2018-11-02T07:34:43.155Z,19.79
2018-11-02T07:36:43.614Z,19.76
2018-11-02T07:37:42.983Z,19.80
2018-11-02T07:38:43.129Z,19.70
2018-11-02T07:39:43.058Z,19.82
2018-11-02T07:40:43.056Z,19.78
2018-11-02T07:41:43.373Z,19.64
2018-11-02T07:42:43.188Z,19.76
2018-11-02T07:43:43.141Z,19.82
2018-11-02T07:44:43.263Z,19.76
2018-11-02T07:45:43.271Z,19.76
2018-11-02T07:46:43.293Z,19.68
2018-11-02T07:47:43.743Z,19.78
2018-11-02T07:48:43.755Z,19.79
2018-11-02T07:49:43.446Z,19.64
2018-11-02T07:50:43.369Z,19.72
2018-11-02T07:51:43.466Z,19.79
2018-11-02T07:52:43.423Z,19.72
2018-11-02T07:53:43.510Z,19.79
2018-11-02T07:54:43.637Z,19.80
2018-11-02T07:55:43.822Z,19.78
2018-11-02T07:56:43.550Z,19.82
2018-11-02T07:57:43.682Z,19.75
2018-11-02T07:58:43.670Z,19.75
2018-11-02T07:59:43.654Z,19.78
2018-11-02T08:00:43.734Z,19.71
2018-11-02T08:01:43.829Z,19.83
2018-11-02T08:02:44.104Z,19.78
2018-11-02T08:03:43.784Z,19.80
2018-11-02T08:04:43.816Z,19.79
2018-11-02T08:05:43.911Z,19.82
2018-11-02T08:06:44.047Z,19.78
2018-11-02T08:07:43.898Z,19.76
2018-11-02T08:08:43.932Z,19.79
2018-11-02T08:09:44.265Z,19.78
2018-11-02T08:10:44.045Z,19.78
2018-11-02T08:11:44.239Z,19.79
2018-11-02T08:12:44.064Z,19.80
2018-11-02T08:13:44.091Z,19.80
2018-11-02T08:14:44.175Z,19.75
2018-11-02T08:15:44.157Z,19.82
2018-11-02T08:16:44.236Z,19.78
2018-11-02T08:17:44.333Z,19.79
2018-11-02T08:18:45.200Z,19.86
2018-11-02T08:19:44.739Z,19.82
2018-11-02T08:20:44.314Z,19.76
2018-11-02T08:21:44.426Z,19.79
2018-11-02T08:22:44.682Z,19.85
2018-11-02T08:23:44.411Z,19.82
2018-11-02T08:24:44.441Z,19.80
2018-11-02T08:25:44.483Z,19.83
2018-11-02T08:26:44.561Z,19.87
2018-11-02T08:27:44.586Z,19.89
2018-11-02T08:28:44.878Z,19.82
2018-11-02T08:29:44.601Z,19.76
2018-11-02T08:30:44.684Z,19.83
2018-11-02T08:31:44.713Z,19.82
2018-11-02T08:32:44.710Z,19.78
2018-11-02T08:33:44.833Z,19.80
2018-11-02T08:34:45.067Z,19.83
2018-11-02T08:35:44.850Z,19.82
2018-11-02T08:36:44.829Z,19.79
2018-11-02T08:37:44.857Z,19.83
2018-11-02T08:38:44.939Z,19.86
2018-11-02T08:39:44.989Z,19.87
2018-11-02T08:40:45.258Z,19.83
2018-11-02T08:41:44.982Z,19.92
2018-11-02T08:42:45.075Z,19.80
2018-11-02T08:43:45.384Z,19.83
2018-11-02T08:44:45.232Z,19.82
2018-11-02T08:45:45.111Z,19.79
2018-11-02T08:46:45.194Z,19.89
2018-11-02T08:47:45.480Z,19.87
2018-11-02T08:48:45.205Z,19.87
2018-11-02T08:49:45.288Z,19.82
2018-11-02T08:50:45.346Z,19.90
2018-11-02T08:51:45.316Z,19.85
2018-11-02T08:52:45.349Z,19.89
2018-11-02T08:53:45.365Z,19.89
2018-11-02T08:55:45.485Z,19.89
2018-11-02T08:56:45.478Z,19.80
2018-11-02T08:57:45.646Z,19.79
2018-11-02T08:58:45.862Z,19.90
2018-11-02T08:59:45.949Z,19.80
2018-11-02T09:00:45.892Z,19.78
2018-11-02T09:01:45.679Z,19.87
2018-11-02T09:02:45.702Z,19.80
2018-11-02T09:03:45.737Z,19.83
2018-11-02T09:04:45.727Z,19.87
2018-11-02T09:05:45.844Z,19.92
2018-11-02T09:06:45.835Z,19.82
2018-11-02T09:07:46.166Z,19.89
2018-11-02T09:08:46.110Z,19.87
2018-11-02T09:09:45.879Z,19.90
2018-11-02T09:10:45.955Z,19.92
2018-11-02T09:11:45.994Z,19.86
2018-11-02T09:12:45.970Z,19.85
2018-11-02T09:13:46.006Z,19.94
2018-11-02T09:14:46.084Z,19.90
2018-11-02T09:15:46.115Z,19.82
2018-11-02T09:16:46.163Z,19.85
2018-11-02T09:17:46.130Z,19.79
2018-11-02T09:18:46.317Z,19.80
2018-11-02T09:19:46.244Z,19.90
2018-11-02T09:20:46.534Z,19.80
2018-11-02T09:21:46.256Z,19.89
2018-11-02T09:22:46.354Z,19.89
2018-11-02T09:23:46.322Z,19.83
2018-11-02T09:24:46.404Z,19.86
2018-11-02T09:25:46.733Z,19.85
2018-11-02T09:26:46.782Z,19.85
2018-11-02T09:27:46.588Z,19.86
2018-11-02T09:28:46.533Z,19.80
2018-11-02T09:29:46.546Z,19.92
2018-11-02T09:30:46.626Z,19.87
2018-11-02T09:31:46.633Z,19.82
2018-11-02T09:32:46.912Z,19.87
2018-11-02T09:33:46.645Z,19.86
2018-11-02T09:34:46.724Z,19.90
2018-11-02T09:35:47.108Z,19.80
2018-11-02T09:37:46.771Z,19.80
2018-11-02T09:38:46.897Z,19.82
2018-11-02T09:39:46.942Z,19.85
2018-11-02T09:40:46.910Z,19.94
2018-11-02T09:41:46.945Z,19.92
2018-11-02T09:42:46.984Z,19.94
2018-11-02T09:43:46.958Z,19.92
2018-11-02T09:44:47.291Z,19.92
2018-11-02T09:45:47.088Z,19.92
2018-11-02T09:46:47.114Z,19.87
2018-11-02T09:47:47.138Z,19.92
2018-11-02T09:48:47.167Z,19.89
2018-11-02T09:49:47.199Z,19.92
2018-11-02T09:50:47.181Z,19.94
2018-11-02T09:51:47.708Z,19.98
2018-11-02T09:52:47.294Z,19.90
2018-11-02T09:53:47.278Z,19.87
2018-11-02T09:54:47.358Z,19.90
2018-11-02T09:55:47.436Z,19.92
2018-11-02T09:56:47.622Z,19.92
2018-11-02T09:57:49.056Z,19.92
2018-11-02T09:58:47.736Z,19.95
2018-11-02T09:59:47.541Z,19.92
2018-11-02T10:00:48.048Z,19.92
2018-11-02T10:02:47.617Z,20.01
2018-11-02T10:03:47.598Z,20.00
2018-11-02T10:05:47.713Z,20.02
2018-11-02T10:06:47.691Z,20.00
2018-11-02T10:07:47.732Z,20.01
2018-11-02T10:08:47.807Z,20.01
2018-11-02T10:09:47.887Z,20.01
2018-11-02T10:10:47.973Z,20.04
2018-11-02T10:11:47.852Z,20.02
2018-11-02T10:12:48.196Z,20.04
2018-11-02T10:13:47.917Z,20.12
2018-11-02T10:14:47.947Z,20.04
2018-11-02T10:15:48.029Z,20.01
2018-11-02T10:16:48.062Z,20.04
2018-11-02T10:17:48.061Z,20.08
2018-11-02T10:18:48.126Z,20.00
2018-11-02T10:19:48.409Z,20.10
2018-11-02T10:20:48.153Z,20.05
2018-11-02T10:21:48.223Z,20.02
2018-11-02T10:22:48.210Z,20.05
2018-11-02T10:23:48.244Z,20.07
2018-11-02T10:24:48.320Z,20.04
2018-11-02T10:25:48.300Z,20.04
2018-11-02T10:26:48.634Z,20.00
2018-11-02T10:27:48.417Z,20.04
2018-11-02T10:28:48.419Z,20.08
2018-11-02T10:29:48.430Z,20.07
2018-11-02T10:30:48.529Z,20.08
2018-11-02T10:31:48.620Z,20.13
2018-11-02T10:32:48.574Z,20.04
2018-11-02T10:33:48.865Z,20.08
2018-11-02T10:34:48.664Z,20.13
2018-11-02T10:35:48.730Z,20.08
2018-11-02T10:36:48.713Z,20.08
2018-11-02T10:37:48.738Z,20.16
2018-11-02T10:38:48.776Z,20.15
2018-11-02T10:39:48.800Z,20.17
2018-11-02T10:40:48.833Z,20.19
2018-11-02T10:41:48.815Z,20.13
2018-11-02T10:42:48.893Z,20.12
2018-11-02T10:43:48.906Z,20.15
2018-11-02T10:44:49.128Z,20.16
2018-11-02T10:45:48.994Z,20.16
2018-11-02T10:46:49.029Z,20.16
2018-11-02T10:47:49.008Z,20.19
2018-11-02T10:48:49.043Z,20.20
2018-11-02T10:49:49.123Z,20.19
2018-11-02T10:50:49.168Z,20.13
2018-11-02T10:51:49.488Z,20.15
2018-11-02T10:52:49.178Z,20.13
2018-11-02T10:53:49.203Z,20.25
2018-11-02T10:54:49.496Z,20.17
2018-11-02T10:55:49.391Z,20.17
2018-11-02T10:56:49.307Z,20.22
2018-11-02T10:57:49.330Z,20.20
2018-11-02T10:58:49.712Z,20.15
2018-11-02T10:59:49.444Z,20.19
2018-11-02T11:00:49.596Z,20.22
2018-11-02T11:01:49.526Z,20.22
2018-11-02T11:02:49.494Z,20.22
2018-11-02T11:03:49.729Z,20.30
2018-11-02T11:04:49.609Z,20.22
2018-11-02T11:05:49.890Z,20.30
2018-11-02T11:06:49.621Z,20.30
2018-11-02T11:07:49.711Z,20.31
2018-11-02T11:08:49.684Z,20.35
2018-11-02T11:09:49.718Z,20.31
2018-11-02T11:10:49.851Z,20.30
2018-11-02T11:11:50.054Z,20.41
2018-11-02T11:12:50.483Z,20.31
2018-11-02T11:13:50.130Z,20.30
2018-11-02T11:14:49.930Z,20.46
2018-11-02T11:15:49.911Z,20.38
2018-11-02T11:16:50.014Z,20.30
2018-11-02T11:17:49.975Z,20.41
2018-11-02T11:18:50.057Z,20.38
2018-11-02T11:19:50.343Z,20.40
2018-11-02T11:20:50.122Z,20.44
2018-11-02T11:21:50.154Z,20.46
2018-11-02T11:22:50.193Z,20.41
2018-11-02T11:23:50.173Z,20.46
2018-11-02T11:24:50.206Z,20.42
2018-11-02T11:25:50.340Z,20.44
2018-11-02T11:27:50.370Z,20.56
2018-11-02T11:28:50.346Z,20.60
2018-11-02T11:29:50.366Z,20.56
2018-11-02T11:30:50.654Z,20.58
2018-11-02T11:31:50.431Z,20.54
2018-11-02T11:32:50.768Z,20.54
2018-11-02T11:33:50.506Z,20.57
2018-11-02T11:34:50.625Z,20.58
2018-11-02T11:35:50.613Z,20.61
2018-11-02T11:36:50.731Z,20.60
2018-11-02T11:37:50.679Z,20.69
2018-11-02T11:38:50.747Z,20.61
2018-11-02T11:39:51.157Z,20.58
2018-11-02T11:40:50.772Z,20.61
2018-11-02T11:41:50.756Z,20.61
2018-11-02T11:42:50.838Z,20.68
2018-11-02T11:43:51.224Z,20.75
2018-11-02T11:44:50.940Z,20.58
2018-11-02T11:45:51.033Z,20.66
2018-11-02T11:46:51.219Z,20.71
2018-11-02T11:47:51.050Z,20.75
2018-11-02T11:48:51.216Z,20.64
2018-11-02T11:49:51.061Z,20.69
2018-11-02T11:50:51.054Z,20.72
2018-11-02T11:51:51.190Z,20.68
2018-11-02T11:52:51.254Z,20.71
2018-11-02T11:53:51.195Z,20.73
2018-11-02T11:54:51.201Z,20.71
2018-11-02T11:55:51.213Z,20.73
2018-11-02T11:56:51.255Z,20.73
2018-11-02T11:58:51.364Z,20.72
2018-11-02T11:59:52.252Z,20.76
2018-11-02T12:00:51.428Z,20.78
2018-11-02T12:01:51.820Z,20.78
2018-11-02T12:02:51.502Z,20.73
2018-11-02T12:03:51.474Z,20.79
2018-11-02T12:04:51.594Z,20.79
2018-11-02T12:05:51.848Z,20.76
2018-11-02T12:06:51.587Z,20.83
2018-11-02T12:07:51.714Z,20.82
2018-11-02T12:08:51.686Z,20.85
2018-11-02T12:09:51.674Z,20.78
2018-11-02T12:10:52.131Z,20.82
2018-11-02T12:11:51.913Z,20.79
2018-11-02T12:12:51.830Z,20.76
2018-11-02T12:13:51.855Z,20.83
2018-11-02T12:14:51.888Z,20.83
2018-11-02T12:15:51.971Z,20.83
2018-11-02T12:16:51.901Z,20.81
2018-11-02T12:17:52.231Z,20.82
2018-11-02T12:18:52.081Z,20.87
2018-11-02T12:19:52.101Z,20.85
2018-11-02T12:20:52.031Z,20.73
2018-11-02T12:21:52.225Z,20.82
2018-11-02T12:22:52.094Z,20.81
2018-11-02T12:23:52.147Z,20.79
2018-11-02T12:24:52.208Z,20.82
2018-11-02T12:25:52.892Z,20.82
2018-11-02T12:26:52.275Z,20.85
2018-11-02T12:27:52.324Z,20.79
2018-11-02T12:28:52.391Z,20.83
2018-11-02T12:29:52.372Z,20.82
2018-11-02T12:30:52.810Z,20.87
2018-11-02T12:31:52.457Z,20.90
2018-11-02T12:32:52.945Z,20.81
2018-11-02T12:33:53.138Z,20.79
2018-11-02T12:34:53.375Z,20.87
2018-11-02T12:35:52.731Z,20.90
2018-11-02T12:36:52.881Z,20.85
2018-11-02T12:37:52.887Z,20.83
2018-11-02T12:38:52.668Z,20.85
2018-11-02T12:39:52.717Z,20.88
2018-11-02T12:40:52.742Z,20.94
2018-11-02T12:41:52.769Z,20.88
2018-11-02T12:42:52.866Z,20.88
2018-11-02T12:43:52.871Z,20.88
2018-11-02T12:44:53.320Z,20.85
2018-11-02T12:45:53.030Z,20.91
2018-11-02T12:46:52.941Z,20.96
2018-11-02T12:47:53.078Z,20.88
2018-11-02T12:48:53.247Z,20.97
2018-11-02T12:49:53.280Z,20.98
2018-11-02T12:50:53.349Z,20.96
2018-11-02T12:51:53.171Z,20.96
2018-11-02T12:52:53.476Z,20.90
2018-11-02T12:53:53.177Z,21.00
2018-11-02T12:54:53.249Z,20.98
2018-11-02T12:55:53.334Z,21.00
2018-11-02T12:56:53.573Z,20.87
2018-11-02T12:57:53.292Z,21.00
2018-11-02T12:58:53.338Z,20.88
2018-11-02T12:59:53.315Z,20.97
2018-11-02T13:00:53.345Z,20.87
2018-11-02T13:01:53.471Z,20.93
2018-11-02T13:02:53.710Z,20.94
2018-11-02T13:03:53.487Z,20.90
2018-11-02T13:04:53.550Z,20.94
2018-11-02T13:05:58.603Z,21.03
2018-11-02T13:06:53.981Z,21.05
2018-11-02T13:07:53.620Z,20.88
2018-11-02T13:08:53.607Z,20.87
2018-11-02T13:09:53.948Z,21.00
2018-11-02T13:10:53.724Z,20.94
2018-11-02T13:11:53.728Z,20.91
2018-11-02T13:12:53.783Z,21.00
2018-11-02T13:14:53.858Z,20.96
2018-11-02T13:15:53.938Z,20.88
2018-11-02T13:16:54.287Z,21.00
2018-11-02T13:17:54.078Z,20.98
2018-11-02T13:18:54.110Z,20.94
2018-11-02T13:19:54.015Z,20.98
2018-11-02T13:20:54.047Z,20.90
2018-11-02T13:21:54.815Z,20.93
2018-11-02T13:22:54.137Z,20.90
2018-11-02T13:23:54.396Z,20.88
2018-11-02T13:24:54.141Z,20.96
2018-11-02T13:25:54.274Z,20.87
2018-11-02T13:26:54.251Z,20.94
2018-11-02T13:27:54.294Z,20.90
2018-11-02T13:28:54.665Z,20.90
2018-11-02T13:29:54.365Z,20.94
2018-11-02T13:30:54.828Z,20.98
2018-11-02T13:31:54.499Z,21.00
2018-11-02T13:32:54.498Z,20.90
2018-11-02T13:33:54.824Z,20.91
2018-11-02T13:34:54.509Z,20.88
2018-11-02T13:35:54.505Z,20.96